createdAt,value
2018-10-03T00:04:33.448Z,74.94
2018-10-03T00:09:35.637Z,75.12
2018-10-03T00:14:37.815Z,75.62
2018-10-03T00:19:39.963Z,75.00
2018-10-03T00:24:42.103Z,75.14
2018-10-03T00:29:44.268Z,75.15
2018-10-03T00:34:46.383Z,76.68
2018-10-03T00:39:48.528Z,79.16
2018-10-03T00:44:50.672Z,80.25
2018-10-03T00:49:52.789Z,79.69
2018-10-03T00:54:54.889Z,80.76
2018-10-03T00:59:57.065Z,80.14
2018-10-03T01:04:59.199Z,80.11
2018-10-03T01:10:01.375Z,79.56
2018-10-03T01:15:03.709Z,79.43
2018-10-03T01:20:05.886Z,79.05
2018-10-03T01:25:08.044Z,78.84
2018-10-03T01:30:10.140Z,78.26
2018-10-03T01:35:12.284Z,78.91
2018-10-03T01:40:14.416Z,79.47
2018-10-03T01:45:16.542Z,79.97
2018-10-03T01:50:18.727Z,81.12
2018-10-03T01:55:20.865Z,81.17
2018-10-03T02:00:22.962Z,81.96
2018-10-03T02:05:25.073Z,82.94
2018-10-03T02:10:27.248Z,81.59
2018-10-03T02:15:29.378Z,82.19
2018-10-03T02:20:31.544Z,81.99
2018-10-03T02:25:33.684Z,81.79
2018-10-03T02:30:35.812Z,82.05
2018-10-03T02:35:37.934Z,81.57
2018-10-03T02:40:40.054Z,81.74
2018-10-03T02:45:42.201Z,81.77
2018-10-03T02:50:44.326Z,81.61
2018-10-03T02:55:46.451Z,81.23
2018-10-03T03:00:49.063Z,80.93
2018-10-03T03:05:51.243Z,80.38
2018-10-03T03:10:53.413Z,80.76
2018-10-03T03:15:55.558Z,80.52
2018-10-03T03:20:57.689Z,80.53
2018-10-03T03:25:59.858Z,80.06
2018-10-03T03:31:01.975Z,79.52
2018-10-03T03:36:04.121Z,79.86
2018-10-03T03:41:06.229Z,79.70
2018-10-03T03:46:08.372Z,80.38
2018-10-03T03:51:10.486Z,80.29
2018-10-03T03:56:12.577Z,80.83
2018-10-03T04:01:14.902Z,80.67
2018-10-03T04:06:17.051Z,80.37
2018-10-03T04:11:19.221Z,79.59
2018-10-03T04:16:21.327Z,79.55
2018-10-03T04:21:28.078Z,79.70
2018-10-03T04:26:30.195Z,79.93
2018-10-03T04:31:33.236Z,79.72
2018-10-03T04:36:35.634Z,79.76
2018-10-03T04:41:37.735Z,79.96
2018-10-03T04:46:39.871Z,80.28
2018-10-03T04:51:42.023Z,79.50
2018-10-03T04:56:44.144Z,79.87
2018-10-03T05:01:46.286Z,79.38
2018-10-03T05:06:48.417Z,78.53
2018-10-03T05:11:50.524Z,78.52
2018-10-03T05:16:52.599Z,78.79
2018-10-03T05:21:54.713Z,79.12
2018-10-03T05:26:56.865Z,79.04
2018-10-03T05:31:58.958Z,78.99
2018-10-03T05:37:01.142Z,78.33
2018-10-03T05:42:03.252Z,77.45
2018-10-03T05:47:05.595Z,76.82
2018-10-03T05:52:07.708Z,76.37
2018-10-03T05:57:10.041Z,76.45
2018-10-03T06:02:12.230Z,76.69
2018-10-03T06:07:14.411Z,76.22
2018-10-03T06:12:16.617Z,75.63
2018-10-03T06:17:18.697Z,74.84
2018-10-03T06:22:20.877Z,74.22
2018-10-03T06:27:22.990Z,74.33
2018-10-03T06:32:25.159Z,73.94
2018-10-03T06:37:27.297Z,73.33
2018-10-03T06:42:29.433Z,72.87
2018-10-03T06:47:31.592Z,72.13
2018-10-03T06:52:33.744Z,72.36
2018-10-03T06:57:35.960Z,71.96
2018-10-03T07:02:38.161Z,71.94
2018-10-03T07:07:40.300Z,71.52
2018-10-03T07:12:42.514Z,71.82
2018-10-03T07:17:44.664Z,71.30
2018-10-03T07:22:46.794Z,71.33
2018-10-03T07:27:49.138Z,71.35
2018-10-03T07:32:51.282Z,70.06
2018-10-03T07:37:53.442Z,70.31
2018-10-03T07:42:55.606Z,70.89
2018-10-03T07:47:57.831Z,70.24
2018-10-03T07:52:59.948Z,70.83
2018-10-03T07:58:02.099Z,70.32
2018-10-03T08:03:09.664Z,69.78
2018-10-03T08:08:11.853Z,69.60
2018-10-03T08:13:14.058Z,69.00
2018-10-03T08:18:16.242Z,68.47
2018-10-03T08:23:18.457Z,68.21
2018-10-03T08:28:20.625Z,68.29
2018-10-03T08:33:22.958Z,68.59
2018-10-03T08:38:24.963Z,68.00
2018-10-03T08:43:27.146Z,68.10
2018-10-03T08:48:29.313Z,67.75
2018-10-03T08:53:31.496Z,67.90
2018-10-03T08:58:34.631Z,68.06
2018-10-03T09:03:36.703Z,67.63
2018-10-03T09:08:38.912Z,67.67
2018-10-03T09:13:41.476Z,66.56
2018-10-03T09:18:43.688Z,65.56
2018-10-03T09:23:45.912Z,64.84
2018-10-03T09:28:48.124Z,64.12
2018-10-03T09:33:50.306Z,63.81
2018-10-03T09:38:52.484Z,63.31
2018-10-03T09:43:54.718Z,61.95
2018-10-03T09:48:56.871Z,61.93
2018-10-03T09:53:59.048Z,60.93
2018-10-03T09:59:01.210Z,60.46
2018-10-03T10:04:04.160Z,60.20
2018-10-03T10:09:07.871Z,59.07
2018-10-03T10:14:10.094Z,58.42
2018-10-03T10:19:12.284Z,58.67
2018-10-03T10:24:14.480Z,58.51
2018-10-03T10:29:16.632Z,57.28
2018-10-03T10:34:18.816Z,57.39
2018-10-03T10:39:20.951Z,56.21
2018-10-03T10:44:23.154Z,56.22
2018-10-03T10:49:25.331Z,55.44
2018-10-03T10:54:27.483Z,54.00
2018-10-03T10:59:29.713Z,53.81
2018-10-03T11:04:31.908Z,53.26
2018-10-03T11:09:34.130Z,52.63
2018-10-03T11:14:36.292Z,52.99
2018-10-03T11:19:38.492Z,53.56
2018-10-03T11:24:40.851Z,52.90
2018-10-03T11:29:42.799Z,53.18
2018-10-03T11:34:44.942Z,51.63
2018-10-03T11:39:47.126Z,50.77
2018-10-03T11:44:49.310Z,49.01
2018-10-03T11:49:51.502Z,48.44
2018-10-03T11:54:53.660Z,48.92
2018-10-03T11:59:55.845Z,47.18
2018-10-03T12:04:58.019Z,47.25
2018-10-03T12:10:00.180Z,46.95
2018-10-03T12:15:02.409Z,46.81
2018-10-03T12:20:04.626Z,45.96
2018-10-03T12:25:06.877Z,46.33
2018-10-03T12:30:09.062Z,44.10
2018-10-03T12:35:11.244Z,43.45
2018-10-03T12:40:13.391Z,41.68
2018-10-03T12:45:15.616Z,45.82
2018-10-03T12:50:17.797Z,50.24
2018-10-03T12:55:20.114Z,48.67
2018-10-03T13:00:24.627Z,45.82
2018-10-03T13:05:27.025Z,44.29
2018-10-03T13:10:30.356Z,43.55
2018-10-03T13:15:32.626Z,45.84
2018-10-03T13:20:34.823Z,45.25
2018-10-03T13:25:37.037Z,43.78
2018-10-03T13:30:39.316Z,45.04
2018-10-03T13:35:41.487Z,46.64
2018-10-03T13:40:43.752Z,44.59
2018-10-03T13:45:45.923Z,42.75
2018-10-03T13:50:48.092Z,41.14
2018-10-03T13:55:50.286Z,39.99
2018-10-03T14:00:52.506Z,39.00
2018-10-03T14:05:54.651Z,38.06
2018-10-03T14:10:56.854Z,37.55
2018-10-03T14:15:59.055Z,36.08
2018-10-03T14:21:01.323Z,36.09
2018-10-03T14:26:03.501Z,36.17
2018-10-03T14:31:05.649Z,40.06
2018-10-03T14:36:07.843Z,43.91
2018-10-03T14:41:10.542Z,45.88
2018-10-03T14:46:12.705Z,49.09
2018-10-03T14:51:14.863Z,50.48
2018-10-03T14:56:17.070Z,50.15
2018-10-03T15:01:19.340Z,51.19
2018-10-03T15:06:21.541Z,51.92
2018-10-03T15:11:23.710Z,53.87
2018-10-03T15:16:25.951Z,55.54
2018-10-03T15:21:28.132Z,55.28
2018-10-03T15:26:30.327Z,55.29
2018-10-03T15:31:32.576Z,55.83
2018-10-03T15:36:34.794Z,56.84
2018-10-03T15:41:36.974Z,57.87
2018-10-03T15:46:39.137Z,57.87
2018-10-03T15:51:41.337Z,58.65
2018-10-03T15:56:43.491Z,59.10
2018-10-03T16:01:45.675Z,59.07
2018-10-03T16:06:47.891Z,58.82
2018-10-03T16:11:50.042Z,58.94
2018-10-03T16:16:52.244Z,58.57
2018-10-03T16:21:54.415Z,58.80
2018-10-03T16:26:56.683Z,58.97
2018-10-03T16:31:58.907Z,58.88
2018-10-03T16:37:01.106Z,59.00
2018-10-03T16:42:03.345Z,58.78
2018-10-03T16:47:05.792Z,58.65
2018-10-03T16:52:08.308Z,58.65
2018-10-03T16:57:10.533Z,58.76
2018-10-03T17:02:13.555Z,58.76
2018-10-03T17:07:15.805Z,59.13
2018-10-03T17:12:18.020Z,58.56
2018-10-03T17:17:20.311Z,59.23
2018-10-03T17:22:22.520Z,59.62
2018-10-03T17:27:24.745Z,60.24
2018-10-03T17:32:27.001Z,59.24
2018-10-03T17:37:29.309Z,60.20
2018-10-03T17:42:31.718Z,60.17
2018-10-03T17:47:34.107Z,60.38
2018-10-03T17:52:36.705Z,60.17
2018-10-03T17:57:39.351Z,60.82
2018-10-03T18:02:41.845Z,60.62
2018-10-03T18:07:44.263Z,60.93
2018-10-03T18:12:46.695Z,61.33
2018-10-03T18:17:49.163Z,61.57
2018-10-03T18:22:52.588Z,61.65
2018-10-03T18:27:55.173Z,61.96
2018-10-03T18:32:58.700Z,62.14
2018-10-03T18:38:02.736Z,62.58
2018-10-03T18:43:06.462Z,62.57
2018-10-03T18:48:10.223Z,62.99
2018-10-03T18:53:12.951Z,63.11
2018-10-03T18:58:16.975Z,63.90
2018-10-03T19:03:19.908Z,63.93
2018-10-03T19:08:22.680Z,64.28
2018-10-03T19:13:26.159Z,64.51
2018-10-03T19:18:29.501Z,64.94
2018-10-03T19:23:33.064Z,65.40
2018-10-03T19:28:35.905Z,65.34
2018-10-03T19:33:39.553Z,65.63
2018-10-03T19:38:42.925Z,66.07
2018-10-03T19:43:46.358Z,66.33
2018-10-03T19:48:49.582Z,66.76
2018-10-03T19:53:52.189Z,66.90
2018-10-03T19:58:55.059Z,66.88
2018-10-03T20:03:57.559Z,66.70
2018-10-03T20:09:00.278Z,67.35
2018-10-03T20:14:04.134Z,67.95
2018-10-03T20:19:06.964Z,67.75
2018-10-03T20:24:09.406Z,67.84
2018-10-03T20:29:11.839Z,68.02
2018-10-03T20:34:14.158Z,68.19
2018-10-03T20:39:16.454Z,68.53
2018-10-03T20:44:18.689Z,68.61
2018-10-03T20:49:21.053Z,69.44
2018-10-03T20:54:23.352Z,70.45
2018-10-03T20:59:25.726Z,70.99
2018-10-03T21:04:27.993Z,70.61
2018-10-03T21:09:30.150Z,70.89
2018-10-03T21:14:32.309Z,71.12
2018-10-03T21:19:34.528Z,71.86
2018-10-03T21:24:36.684Z,71.96
2018-10-03T21:29:39.140Z,71.63
2018-10-03T21:34:41.332Z,71.83
2018-10-03T21:39:43.522Z,71.95
2018-10-03T21:44:45.850Z,72.46
2018-10-03T21:49:48.102Z,71.91
2018-10-03T21:54:50.249Z,71.78
2018-10-03T21:59:52.417Z,72.13
2018-10-03T22:04:54.564Z,72.17
2018-10-03T22:09:56.722Z,72.95
2018-10-03T22:14:58.879Z,73.47
2018-10-03T22:20:01.077Z,73.40
2018-10-03T22:25:03.626Z,73.83
2018-10-03T22:30:05.872Z,74.05
2018-10-03T22:35:08.008Z,73.91
2018-10-03T22:40:10.191Z,74.13
2018-10-03T22:45:12.351Z,74.34
2018-10-03T22:50:14.485Z,74.56
2018-10-03T22:55:16.638Z,74.34
2018-10-03T23:00:18.794Z,74.41
2018-10-03T23:05:20.939Z,74.44
2018-10-03T23:10:23.104Z,75.18
2018-10-03T23:15:25.283Z,75.57
2018-10-03T23:20:27.439Z,75.28
2018-10-03T23:25:29.567Z,75.28
2018-10-03T23:30:31.692Z,75.18
2018-10-03T23:35:33.810Z,75.61
2018-10-03T23:40:35.939Z,75.44
2018-10-03T23:45:38.204Z,75.49
2018-10-03T23:50:40.360Z,75.32
2018-10-03T23:55:42.460Z,75.88
